Time;durP1;ratioP1;P1;durP2;ratioP2;P2;SDS_P1;SDS_P2;PMS_P1;PMS_P2;Temp;Humidity;BMP_temperature;BMP_pressure;BME280_temperature;BME280_humidity;BME280_pressure;Samples;Min_cycle;Max_cycle;Signal;HPM_P1;HPM_P2
2023/11/15 00:00:42;;;;;;;11.43;8.02;;;;;;;6.99;100.00;97963.84;5119871;27;20125;-70
2023/11/15 00:03:08;;;;;;;12.93;7.63;;;;;;;7.03;100.00;97960.69;5116589;27;20183;-69
2023/11/15 00:05:34;;;;;;;17.35;8.30;;;;;;;6.96;100.00;97969.47;5065544;27;20066;-69
2023/11/15 00:07:59;;;;;;;13.60;8.27;;;;;;;7.00;100.00;97965.47;5098538;27;20133;-69
2023/11/15 00:10:27;;;;;;;10.45;7.60;;;;;;;7.06;100.00;97957.69;5133335;27;20113;-69
2023/11/15 00:12:53;;;;;;;13.38;8.55;;;;;;;6.98;100.00;97962.22;5098666;27;20043;-69
2023/11/15 00:15:19;;;;;;;13.85;8.90;;;;;;;6.93;100.00;97961.91;5115439;27;20042;-68
2023/11/15 00:17:46;;;;;;;14.20;9.20;;;;;;;6.88;100.00;97952.72;5041000;28;20048;-68
2023/11/15 00:20:15;;;;;;;14.30;8.68;;;;;;;6.81;100.00;97958.88;5040652;28;20052;-69
2023/11/15 00:22:41;;;;;;;14.68;8.90;;;;;;;6.83;100.00;97962.13;5024697;28;20062;-68
2023/11/15 00:25:08;;;;;;;15.40;8.70;;;;;;;6.68;100.00;97969.16;5091031;28;20048;-68
2023/11/15 00:27:35;;;;;;;14.63;8.52;;;;;;;6.84;100.00;97953.25;5040875;28;20523;-68
2023/11/15 00:30:03;;;;;;;17.45;9.00;;;;;;;6.71;100.00;97956.47;5040226;28;20052;-68
2023/11/15 00:32:32;;;;;;;15.00;9.07;;;;;;;6.69;100.00;97949.69;5026074;28;20589;-69
2023/11/15 00:34:58;;;;;;;19.58;9.20;;;;;;;6.75;100.00;97944.56;5040877;28;20044;-69
2023/11/15 00:37:24;;;;;;;15.82;9.55;;;;;;;6.86;100.00;97954.72;5040440;28;20503;-69
2023/11/15 00:39:50;;;;;;;15.63;9.00;;;;;;;6.78;100.00;97946.03;5040520;28;20070;-69
2023/11/15 00:42:16;;;;;;;14.35;9.30;;;;;;;6.76;100.00;97948.81;5023994;28;20577;-69
2023/11/15 00:44:42;;;;;;;15.73;9.60;;;;;;;6.70;100.00;97944.25;5040331;28;20040;-70
2023/11/15 00:47:08;;;;;;;15.65;9.10;;;;;;;6.72;100.00;97942.25;5040382;28;20039;-70
2023/11/15 00:49:34;;;;;;;19.00;9.90;;;;;;;6.60;100.00;97943.66;5072076;27;20502;-69
2023/11/15 00:51:59;;;;;;;14.98;9.82;;;;;;;6.62;100.00;97938.22;5081654;27;20043;-69
2023/11/15 00:54:25;;;;;;;16.25;10.27;;;;;;;6.55;100.00;97930.19;5098214;27;20187;-69
2023/11/15 00:56:55;;;;;;;17.80;10.23;;;;;;;6.59;100.00;97934.13;5115085;27;20047;-69
2023/11/15 00:59:26;;;;;;;19.17;10.43;;;;;;;6.71;100.00;97931.88;5098038;27;20039;-69
2023/11/15 01:01:59;;;;;;;20.38;9.82;;;;;;;6.71;100.00;97937.16;5081836;27;20035;-69
2023/11/15 01:04:25;;;;;;;14.80;8.98;;;;;;;6.73;100.00;97933.34;5098987;27;20043;-69
2023/11/15 01:06:51;;;;;;;19.73;9.82;;;;;;;6.61;100.00;97933.94;5098009;27;20043;-69
2023/11/15 01:09:18;;;;;;;19.70;11.05;;;;;;;6.67;100.00;97930.59;5097478;27;20069;-69
2023/11/15 01:11:44;;;;;;;16.27;10.18;;;;;;;6.70;100.00;97936.34;5080181;27;20049;-68
2023/11/15 01:14:11;;;;;;;16.38;10.18;;;;;;;6.47;100.00;97938.13;5080859;28;20069;-68
2023/11/15 01:16:37;;;;;;;19.52;11.20;;;;;;;6.48;100.00;97931.88;5132075;27;20050;-68
2023/11/15 01:19:04;;;;;;;18.27;11.00;;;;;;;6.50;100.00;97927.22;5098055;28;20047;-69
2023/11/15 01:21:30;;;;;;;16.75;10.18;;;;;;;6.64;100.00;97933.59;5081205;28;20035;-68
2023/11/15 01:23:56;;;;;;;21.13;11.02;;;;;;;6.64;100.00;97938.88;5097837;28;20074;-68
2023/11/15 01:26:22;;;;;;;15.90;9.77;;;;;;;6.71;100.00;97934.53;5110630;27;20046;-68
2023/11/15 01:28:50;;;;;;;16.40;10.13;;;;;;;6.77;100.00;97934.66;5118615;27;20051;-68
2023/11/15 01:31:16;;;;;;;15.88;9.77;;;;;;;6.79;100.00;97931.84;5135405;27;20511;-69
2023/11/15 01:33:43;;;;;;;20.75;10.90;;;;;;;6.78;100.00;97928.38;5118584;27;20039;-69
2023/11/15 01:36:09;;;;;;;17.52;9.55;;;;;;;6.75;100.00;97927.88;5101649;27;20066;-70
2023/11/15 01:38:37;;;;;;;16.77;9.88;;;;;;;6.75;100.00;97934.00;5118053;27;20042;-69
2023/11/15 01:41:07;;;;;;;14.82;9.63;;;;;;;6.79;100.00;97929.19;5118743;27;20374;-70
2023/11/15 01:43:34;;;;;;;20.40;9.98;;;;;;;6.74;100.00;97927.09;5118903;27;20039;-68
2023/11/15 01:46:01;;;;;;;16.92;10.27;;;;;;;6.79;100.00;97927.41;5152610;27;20042;-67
2023/11/15 01:48:28;;;;;;;15.60;9.85;;;;;;;6.80;100.00;97926.38;5117916;27;20149;-67
2023/11/15 01:50:55;;;;;;;20.65;10.68;;;;;;;6.83;100.00;97922.56;5118320;27;20280;-68
2023/11/15 01:53:21;;;;;;;20.75;10.63;;;;;;;6.81;100.00;97924.59;5101418;27;20145;-69
2023/11/15 01:55:48;;;;;;;17.77;10.25;;;;;;;6.88;100.00;97921.06;5101364;27;20137;-69
2023/11/15 01:58:15;;;;;;;18.02;10.23;;;;;;;6.83;100.00;97925.19;5117890;27;20038;-69
2023/11/15 02:00:41;;;;;;;15.50;9.80;;;;;;;6.88;100.00;97931.63;5135019;27;20920;-69
2023/11/15 02:03:07;;;;;;;17.13;9.43;;;;;;;6.85;100.00;97931.97;5117791;27;20084;-69
2023/11/15 02:05:32;;;;;;;16.42;10.18;;;;;;;6.91;100.00;97930.44;5118153;27;20050;-69
2023/11/15 02:07:58;;;;;;;16.55;10.05;;;;;;;6.93;100.00;97931.88;5100936;27;20057;-69
2023/11/15 02:10:24;;;;;;;16.40;9.95;;;;;;;6.95;100.00;97936.97;5102576;27;20039;-69
2023/11/15 02:12:50;;;;;;;16.30;10.02;;;;;;;6.93;100.00;97932.88;5138751;27;20038;-69
2023/11/15 02:15:16;;;;;;;19.52;10.82;;;;;;;6.93;100.00;97943.44;5122051;27;20082;-70
2023/11/15 02:17:48;;;;;;;17.83;10.18;;;;;;;6.90;100.00;97940.16;5105654;27;20046;-71
2023/11/15 02:20:18;;;;;;;18.57;10.63;;;;;;;6.99;100.00;97948.00;5121954;27;20034;-70
2023/11/15 02:22:49;;;;;;;16.73;10.13;;;;;;;6.96;100.00;97949.19;5121308;27;20545;-68
2023/11/15 02:25:16;;;;;;;18.63;11.05;;;;;;;6.85;100.00;97947.78;5121543;27;20061;-68
2023/11/15 02:27:42;;;;;;;17.98;11.02;;;;;;;6.74;100.00;97956.09;5121677;27;20035;-68
2023/11/15 02:30:09;;;;;;;19.88;11.52;;;;;;;6.79;100.00;97956.41;5122096;27;20054;-68
2023/11/15 02:32:37;;;;;;;16.58;10.68;;;;;;;6.85;100.00;97960.16;5104630;27;20035;-69
2023/11/15 02:35:04;;;;;;;21.52;11.45;;;;;;;6.74;100.00;97958.75;5083163;27;20057;-69
2023/11/15 02:37:29;;;;;;;20.25;11.48;;;;;;;6.63;100.00;97967.06;5083133;27;20062;-69
2023/11/15 02:39:57;;;;;;;22.25;12.43;;;;;;;6.57;100.00;97967.75;5099640;27;20047;-68
2023/11/15 02:42:24;;;;;;;20.67;12.35;;;;;;;6.58;100.00;97961.47;5099737;27;20177;-68
2023/11/15 02:44:50;;;;;;;20.10;12.60;;;;;;;6.44;100.00;97967.47;5066072;27;20078;-68
2023/11/15 02:47:16;;;;;;;21.20;11.50;;;;;;;6.39;100.00;97972.47;5065922;27;20074;-69
2023/11/15 02:49:42;;;;;;;24.25;11.55;;;;;;;6.38;100.00;97976.06;5082570;27;20133;-68
2023/11/15 02:52:07;;;;;;;25.40;12.55;;;;;;;6.32;100.00;97973.34;5066419;27;20474;-68
2023/11/15 02:54:33;;;;;;;19.00;11.35;;;;;;;6.33;100.00;97970.53;5099674;27;20096;-69
2023/11/15 02:56:59;;;;;;;20.67;11.57;;;;;;;6.38;100.00;97965.53;5082614;27;20376;-68
2023/11/15 02:59:25;;;;;;;24.77;12.38;;;;;;;6.42;100.00;97974.75;5082537;27;20055;-68
2023/11/15 03:01:51;;;;;;;18.27;11.20;;;;;;;6.52;100.00;97974.53;5065812;27;20080;-70
2023/11/15 03:04:17;;;;;;;19.92;10.63;;;;;;;6.43;100.00;97976.38;5065745;27;20070;-70
2023/11/15 03:06:43;;;;;;;23.05;11.70;;;;;;;6.49;100.00;97977.50;5116265;27;20051;-67
2023/11/15 03:09:09;;;;;;;17.92;11.18;;;;;;;6.48;100.00;97974.06;5082447;27;20043;-68
2023/11/15 03:11:35;;;;;;;29.85;14.52;;;;;;;6.44;100.00;97985.94;5085699;27;20046;-67
2023/11/15 03:14:02;;;;;;;19.90;10.38;;;;;;;6.50;100.00;97979.16;5120799;27;20103;-67
2023/11/15 03:16:29;;;;;;;22.25;10.88;;;;;;;6.55;100.00;97977.63;5137826;27;20062;-66
2023/11/15 03:18:55;;;;;;;19.88;11.50;;;;;;;6.48;100.00;97981.97;5120379;27;20050;-67
2023/11/15 03:21:21;;;;;;;21.40;11.75;;;;;;;6.57;100.00;97977.47;5102981;27;20039;-67
2023/11/15 03:23:47;;;;;;;18.48;11.23;;;;;;;6.59;100.00;97972.84;5120203;27;20073;-65
2023/11/15 03:26:13;;;;;;;19.15;11.40;;;;;;;6.54;100.00;97973.38;5103067;27;20482;-69
2023/11/15 03:28:39;;;;;;;20.70;11.82;;;;;;;6.58;100.00;97977.28;5078460;28;20069;-69
2023/11/15 03:31:05;;;;;;;19.48;10.98;;;;;;;6.64;100.00;97981.88;5061735;28;20055;-67
2023/11/15 03:33:31;;;;;;;22.48;10.85;;;;;;;6.63;100.00;97972.31;5061692;28;20051;-67
2023/11/15 03:35:57;;;;;;;22.23;11.70;;;;;;;6.70;100.00;97980.38;5061623;28;20525;-66
2023/11/15 03:38:23;;;;;;;19.40;11.05;;;;;;;6.66;100.00;97973.78;5069192;28;20510;-66
2023/11/15 03:40:50;;;;;;;20.85;11.55;;;;;;;6.70;100.00;97972.47;5058230;28;20437;-73
2023/11/15 03:43:15;;;;;;;19.67;11.10;;;;;;;6.75;100.00;97967.47;5044423;28;20044;-67
2023/11/15 03:45:41;;;;;;;16.13;10.73;;;;;;;6.78;100.00;97972.41;5057613;28;20522;-71
2023/11/15 03:48:07;;;;;;;19.95;11.23;;;;;;;6.84;100.00;97967.25;5076961;28;20040;-67
2023/11/15 03:50:34;;;;;;;20.45;12.32;;;;;;;6.86;100.00;97973.19;5058479;28;20138;-67
2023/11/15 03:53:02;;;;;;;17.90;11.23;;;;;;;6.91;100.00;97988.47;5051854;28;20044;-66
2023/11/15 03:55:30;;;;;;;17.60;10.70;;;;;;;6.92;100.00;97982.19;5060462;28;20036;-66
2023/11/15 03:57:56;;;;;;;18.02;10.45;;;;;;;6.94;100.00;97990.78;5072220;28;20067;-66
2023/11/15 04:00:22;;;;;;;16.40;10.68;;;;;;;6.93;100.00;97988.31;5091254;27;20094;-69
2023/11/15 04:02:48;;;;;;;18.38;10.70;;;;;;;6.88;100.00;97986.19;5106779;27;20054;-68
2023/11/15 04:05:16;;;;;;;18.35;10.98;;;;;;;6.90;100.00;97982.38;5088185;27;20039;-66
2023/11/15 04:07:43;;;;;;;20.38;11.57;;;;;;;6.85;100.00;97984.75;5115302;27;20050;-70
2023/11/15 04:10:10;;;;;;;17.60;10.93;;;;;;;6.90;100.00;97985.00;5117105;27;20077;-67
2023/11/15 04:12:37;;;;;;;18.45;10.80;;;;;;;6.84;100.00;97990.19;5116578;27;20489;-67
2023/11/15 04:15:03;;;;;;;16.45;10.40;;;;;;;6.86;100.00;97980.25;5116629;27;20038;-68
2023/11/15 04:17:31;;;;;;;18.92;11.68;;;;;;;6.75;100.00;97984.13;5100094;27;20053;-68
2023/11/15 04:19:57;;;;;;;21.20;11.18;;;;;;;6.73;100.00;97983.47;5083680;27;20485;-67
2023/11/15 04:22:23;;;;;;;16.55;10.55;;;;;;;6.72;100.00;97984.47;5105331;27;20054;-67
2023/11/15 04:24:50;;;;;;;18.45;11.40;;;;;;;6.65;100.00;97980.91;5084418;27;20126;-68
2023/11/15 04:27:16;;;;;;;17.58;10.48;;;;;;;6.65;100.00;97980.06;5087738;27;20031;-69
2023/11/15 04:29:42;;;;;;;20.08;11.90;;;;;;;6.61;100.00;97981.41;5088196;27;20395;-68
2023/11/15 04:32:08;;;;;;;21.48;11.98;;;;;;;6.56;100.00;97979.31;5069559;28;20138;-68
2023/11/15 04:34:34;;;;;;;22.45;12.35;;;;;;;6.64;100.00;97973.97;5087932;27;20378;-67
2023/11/15 04:37:00;;;;;;;20.65;11.75;;;;;;;6.68;100.00;97985.00;5104243;27;20092;-68
2023/11/15 04:39:26;;;;;;;20.90;13.00;;;;;;;6.64;100.00;97983.72;5086652;27;20164;-68
2023/11/15 04:41:52;;;;;;;21.27;11.88;;;;;;;6.65;100.00;97975.63;5088338;27;20039;-68
2023/11/15 04:44:19;;;;;;;20.23;11.70;;;;;;;6.62;100.00;97977.78;5086614;27;20082;-68
2023/11/15 04:46:46;;;;;;;20.02;11.75;;;;;;;6.74;100.00;97994.84;5053611;27;20471;-68
2023/11/15 04:49:12;;;;;;;19.60;11.55;;;;;;;6.71;100.00;97985.47;5081048;27;20035;-68
2023/11/15 04:51:38;;;;;;;22.05;12.48;;;;;;;6.74;100.00;97994.84;5080271;27;20512;-68
2023/11/15 04:54:05;;;;;;;22.13;12.73;;;;;;;6.74;100.00;97986.94;5132249;27;20046;-67
2023/11/15 04:56:34;;;;;;;22.48;12.63;;;;;;;6.80;100.00;97994.16;5100519;27;20043;-67
2023/11/15 04:59:01;;;;;;;22.15;12.73;;;;;;;6.66;100.00;97998.34;5100688;27;20084;-67
2023/11/15 05:01:27;;;;;;;22.95;13.30;;;;;;;6.64;100.00;97997.69;5083484;27;20053;-68
2023/11/15 05:03:53;;;;;;;25.00;12.88;;;;;;;6.65;100.00;98004.63;5100348;27;20050;-68
2023/11/15 05:06:20;;;;;;;22.23;12.05;;;;;;;6.63;100.00;97998.72;5117297;27;20031;-67
2023/11/15 05:08:45;;;;;;;20.60;11.80;;;;;;;6.53;100.00;97999.91;5083602;27;20038;-68
2023/11/15 05:11:11;;;;;;;22.23;12.38;;;;;;;6.63;100.00;98000.50;5083514;27;20080;-67
2023/11/15 05:13:37;;;;;;;23.67;13.02;;;;;;;6.70;100.00;98002.28;5117145;27;20439;-67
2023/11/15 05:16:03;;;;;;;20.27;11.50;;;;;;;6.79;100.00;98006.53;5117243;27;20390;-67
2023/11/15 05:18:30;;;;;;;14.90;10.00;;;;;;;6.82;100.00;98010.63;5117430;27;20075;-67
2023/11/15 05:20:56;;;;;;;17.50;10.73;;;;;;;6.87;100.00;98017.03;5100178;27;20035;-67
2023/11/15 05:23:22;;;;;;;21.60;11.55;;;;;;;6.87;100.00;98011.75;5083435;27;20054;-67
2023/11/15 05:25:47;;;;;;;21.30;10.73;;;;;;;6.92;100.00;98013.06;5148953;27;20138;-67
2023/11/15 05:28:14;;;;;;;21.50;12.52;;;;;;;6.93;100.00;98015.53;5081338;28;20047;-67
2023/11/15 05:30:41;;;;;;;23.52;12.50;;;;;;;6.99;100.00;98017.47;5097749;28;20051;-68
2023/11/15 05:33:08;;;;;;;20.70;12.30;;;;;;;6.92;100.00;98015.69;5063477;28;20146;-67
2023/11/15 05:35:35;;;;;;;22.90;12.57;;;;;;;6.82;100.00;98014.09;5114764;28;20124;-67
2023/11/15 05:38:01;;;;;;;20.52;12.32;;;;;;;6.79;100.00;98025.00;5114324;28;20057;-67
2023/11/15 05:40:27;;;;;;;19.75;12.27;;;;;;;6.80;100.00;98018.72;5096104;28;20409;-67
2023/11/15 05:42:53;;;;;;;21.52;12.35;;;;;;;6.83;100.00;98021.00;5079710;28;20055;-67
2023/11/15 05:45:18;;;;;;;23.67;12.60;;;;;;;6.86;100.00;98023.31;5116926;27;20055;-68
2023/11/15 05:47:44;;;;;;;21.80;12.00;;;;;;;6.90;100.00;98016.69;5083806;27;20051;-67
2023/11/15 05:50:10;;;;;;;21.45;12.45;;;;;;;6.87;100.00;98027.56;5100539;27;20149;-67
2023/11/15 05:52:40;;;;;;;22.55;12.63;;;;;;;6.97;100.00;98023.88;5117349;27;20566;-67
2023/11/15 05:55:08;;;;;;;22.23;12.32;;;;;;;7.01;100.00;98028.69;5101279;27;20085;-67
2023/11/15 05:57:34;;;;;;;22.50;12.60;;;;;;;7.02;100.00;98037.38;5097599;27;20072;-70
2023/11/15 06:00:05;;;;;;;21.88;13.05;;;;;;;7.08;100.00;98029.59;5080375;28;20082;-70
2023/11/15 06:02:38;;;;;;;22.80;11.80;;;;;;;7.04;100.00;98033.59;5040901;28;20053;-70
2023/11/15 06:05:05;;;;;;;20.30;12.05;;;;;;;7.08;100.00;98037.53;5023591;28;20101;-69
2023/11/15 06:07:30;;;;;;;24.33;12.00;;;;;;;7.02;100.00;98032.13;5039951;28;20061;-68
2023/11/15 06:09:56;;;;;;;21.88;12.27;;;;;;;7.07;100.00;98035.06;5040097;28;20652;-69
2023/11/15 06:12:22;;;;;;;19.38;11.85;;;;;;;7.10;100.00;98042.63;4989535;28;20080;-70
2023/11/15 06:14:49;;;;;;;20.08;12.10;;;;;;;7.12;100.00;98041.44;5036502;28;20084;-69
2023/11/15 06:17:15;;;;;;;19.85;11.85;;;;;;;7.20;100.00;98048.47;5020398;28;20418;-69
2023/11/15 06:19:43;;;;;;;21.70;12.15;;;;;;;7.22;100.00;98054.41;5003660;28;20396;-69
2023/11/15 06:22:13;;;;;;;19.48;11.30;;;;;;;7.21;100.00;98052.78;4995224;28;20048;-69
2023/11/15 06:24:40;;;;;;;21.85;11.32;;;;;;;7.29;100.00;98050.09;5023045;28;20089;-71
2023/11/15 06:27:07;;;;;;;19.33;11.63;;;;;;;7.27;100.00;98052.91;5056321;28;20177;-69
2023/11/15 06:29:34;;;;;;;20.42;11.95;;;;;;;7.25;100.00;98060.19;5073061;28;20602;-70
2023/11/15 06:32:00;;;;;;;20.52;11.40;;;;;;;7.33;100.00;98052.22;5023097;28;20052;-69
2023/11/15 06:34:25;;;;;;;19.35;11.07;;;;;;;7.32;99.31;98057.66;5032711;28;20160;-69
2023/11/15 06:36:55;;;;;;;19.65;11.43;;;;;;;7.32;99.49;98057.66;4999928;28;20585;-71
2023/11/15 06:39:21;;;;;;;21.23;11.82;;;;;;;7.31;98.87;98058.66;5040974;28;20167;-70
2023/11/15 06:41:47;;;;;;;21.70;12.43;;;;;;;7.36;98.87;98061.59;5039414;28;20594;-69
2023/11/15 06:44:12;;;;;;;21.02;12.30;;;;;;;7.42;98.26;98053.78;5039003;28;20147;-70
2023/11/15 06:46:38;;;;;;;21.08;11.40;;;;;;;7.51;97.97;98057.19;5039111;28;20127;-70
2023/11/15 06:49:10;;;;;;;26.52;11.82;;;;;;;7.74;98.20;98060.63;5022879;28;20558;-70
2023/11/15 06:51:37;;;;;;;24.23;13.38;;;;;;;7.67;97.56;98057.84;5039658;28;20605;-69
2023/11/15 06:54:04;;;;;;;21.05;12.65;;;;;;;7.76;97.26;98064.75;5022679;28;20078;-69
2023/11/15 06:56:30;;;;;;;24.42;12.02;;;;;;;7.95;96.63;98053.66;5071324;28;20086;-69
2023/11/15 06:58:56;;;;;;;22.23;11.55;;;;;;;8.42;94.80;98046.25;5038727;28;20143;-69
2023/11/15 07:01:22;;;;;;;18.55;11.70;;;;;;;8.82;92.81;98052.03;5055646;28;20048;-69
2023/11/15 07:03:49;;;;;;;20.10;11.25;;;;;;;9.03;90.00;98054.72;5039380;28;20427;-70
2023/11/15 07:06:15;;;;;;;20.98;10.85;;;;;;;9.29;89.32;98045.25;5073264;28;20074;-71
2023/11/15 07:08:41;;;;;;;20.88;10.55;;;;;;;9.45;86.87;98050.31;5062882;28;20071;-70
2023/11/15 07:11:08;;;;;;;16.42;11.05;;;;;;;9.64;85.71;98054.16;5062312;28;20055;-70
2023/11/15 07:13:34;;;;;;;18.25;11.40;;;;;;;9.54;84.86;98064.22;5079087;28;20039;-70
2023/11/15 07:16:02;;;;;;;19.88;11.60;;;;;;;9.39;85.45;98055.53;5095518;28;20036;-69
2023/11/15 07:18:30;;;;;;;19.48;11.00;;;;;;;9.47;85.06;98056.22;5079206;28;20495;-71
2023/11/15 07:20:56;;;;;;;20.38;10.13;;;;;;;9.52;85.12;98055.63;5095691;28;20108;-70
2023/11/15 07:23:22;;;;;;;25.45;11.40;;;;;;;9.49;84.21;98058.66;5060618;27;20051;-70
2023/11/15 07:25:49;;;;;;;21.77;11.88;;;;;;;9.49;84.84;98056.84;5116345;27;20383;-75
2023/11/15 07:28:19;;;;;;;19.50;10.90;;;;;;;9.46;84.34;98059.88;5058623;28;20113;-78
2023/11/15 07:30:45;;;;;;;21.00;10.90;;;;;;;9.56;83.93;98057.72;5075153;28;20097;-78
2023/11/15 07:33:11;;;;;;;20.45;10.57;;;;;;;9.66;82.97;98060.88;5024619;28;20059;-69
2023/11/15 07:35:37;;;;;;;19.58;10.80;;;;;;;9.80;82.57;98061.81;5058029;28;20044;-67
2023/11/15 07:38:09;;;;;;;17.05;10.63;;;;;;;10.39;81.40;98062.28;5074360;28;20047;-68
2023/11/15 07:40:36;;;;;;;18.75;10.00;;;;;;;10.94;79.19;98064.81;5058575;28;20097;-71
2023/11/15 07:43:05;;;;;;;17.38;10.23;;;;;;;10.98;77.21;98058.91;5024603;28;20385;-71
2023/11/15 07:45:35;;;;;;;16.15;10.60;;;;;;;11.04;76.48;98065.28;5041457;28;20082;-68
2023/11/15 07:48:10;;;;;;;18.33;10.48;;;;;;;11.29;76.18;98069.00;5041414;28;20048;-68
2023/11/15 07:50:37;;;;;;;15.93;10.27;;;;;;;11.52;74.00;98062.31;5025088;28;20051;-69
2023/11/15 07:53:03;;;;;;;16.45;10.18;;;;;;;11.34;73.54;98066.56;5037168;28;20083;-69
2023/11/15 07:55:30;;;;;;;16.38;10.85;;;;;;;10.94;73.83;98070.13;5070553;28;20124;-67
2023/11/15 07:57:56;;;;;;;23.42;11.07;;;;;;;10.38;75.17;98071.28;5037234;28;20052;-68
2023/11/15 08:00:23;;;;;;;23.98;12.45;;;;;;;9.92;76.71;98078.84;5044078;28;20048;-71
2023/11/15 08:02:51;;;;;;;16.45;11.38;;;;;;;9.71;78.93;98066.44;5077773;28;20055;-67
2023/11/15 08:05:20;;;;;;;20.38;11.60;;;;;;;9.33;79.23;98062.38;5094439;28;20035;-67
2023/11/15 08:07:47;;;;;;;19.67;11.52;;;;;;;9.27;80.98;98072.94;5060865;28;20058;-69
2023/11/15 08:10:14;;;;;;;19.10;12.13;;;;;;;9.17;82.40;98075.88;5060975;28;20044;-68
2023/11/15 08:12:45;;;;;;;20.73;12.00;;;;;;;9.55;82.32;98071.16;5094710;28;20116;-69
2023/11/15 08:15:14;;;;;;;18.77;11.45;;;;;;;9.39;80.86;98076.72;5052898;28;20052;-69
2023/11/15 08:17:43;;;;;;;21.13;11.13;;;;;;;9.39;81.30;98074.06;5024736;28;20135;-70
2023/11/15 08:20:10;;;;;;;17.30;11.48;;;;;;;9.26;81.37;98080.06;5041014;28;20052;-70
2023/11/15 08:22:37;;;;;;;19.60;11.50;;;;;;;9.25;82.44;98074.94;5032255;28;20063;-70
2023/11/15 08:25:09;;;;;;;20.15;11.80;;;;;;;9.38;82.15;98080.38;5053736;28;20134;-70
2023/11/15 08:27:38;;;;;;;19.83;11.05;;;;;;;9.51;81.90;98080.50;5073657;28;20043;-71
2023/11/15 08:30:14;;;;;;;16.90;9.63;;;;;;;9.91;81.30;98083.34;5024201;28;20044;-70
2023/11/15 08:32:41;;;;;;;17.88;10.88;;;;;;;9.76;80.04;98087.88;5040734;28;20160;-69
2023/11/15 08:35:09;;;;;;;19.05;10.98;;;;;;;10.00;79.07;98097.28;5040413;28;20070;-69
2023/11/15 08:37:39;;;;;;;21.33;11.52;;;;;;;10.15;78.88;98093.56;5040596;28;20047;-69
2023/11/15 08:40:05;;;;;;;19.02;11.20;;;;;;;10.02;78.61;98089.94;5023366;28;20178;-70
2023/11/15 08:42:31;;;;;;;22.15;10.75;;;;;;;10.06;78.38;98096.50;5056805;28;20039;-69
2023/11/15 08:44:58;;;;;;;23.00;12.25;;;;;;;10.47;76.97;98099.28;5023418;28;20060;-67
2023/11/15 08:47:25;;;;;;;19.10;11.70;;;;;;;11.04;74.69;98103.25;5056539;28;20108;-70
2023/11/15 08:49:53;;;;;;;16.10;9.93;;;;;;;11.32;73.38;98100.50;5023958;28;20043;-70
2023/11/15 08:52:20;;;;;;;17.17;10.30;;;;;;;12.34;70.63;98100.03;5057187;28;20525;-69
2023/11/15 08:54:46;;;;;;;17.23;10.48;;;;;;;13.48;65.94;98093.97;5039828;28;20044;-70
2023/11/15 08:57:15;;;;;;;15.27;10.63;;;;;;;14.65;62.55;98093.06;5080451;27;20274;-72
2023/11/15 08:59:42;;;;;;;19.25;10.68;;;;;;;15.23;59.01;98090.75;5098297;27;20490;-69
2023/11/15 09:02:11;;;;;;;20.55;11.00;;;;;;;15.45;56.83;98085.78;5114751;27;20042;-70
2023/11/15 09:04:38;;;;;;;17.63;11.55;;;;;;;15.43;55.19;98090.53;5115033;27;20107;-70
2023/11/15 09:07:05;;;;;;;21.65;11.57;;;;;;;15.50;54.33;98081.38;5114458;27;20376;-71
2023/11/15 09:09:38;;;;;;;15.95;11.02;;;;;;;16.07;53.24;98082.56;5114903;27;20050;-70
2023/11/15 09:12:05;;;;;;;17.80;11.48;;;;;;;17.33;50.20;98087.06;5114468;27;20043;-70
2023/11/15 09:14:33;;;;;;;18.50;11.77;;;;;;;18.67;46.33;98095.09;5097696;27;20475;-70
2023/11/15 09:17:00;;;;;;;15.48;10.13;;;;;;;19.31;43.33;98091.69;5098224;27;20042;-71
2023/11/15 09:19:30;;;;;;;23.85;10.57;;;;;;;19.64;41.19;98090.72;5114552;27;20088;-70
2023/11/15 09:21:56;;;;;;;16.45;10.10;;;;;;;19.52;40.40;98092.75;5097371;27;20086;-70
2023/11/15 09:24:22;;;;;;;19.63;12.75;;;;;;;19.03;40.68;98099.94;5097512;28;20139;-70
2023/11/15 09:26:48;;;;;;;23.50;12.70;;;;;;;18.04;41.23;98097.28;5080721;28;20039;-70
2023/11/15 09:29:14;;;;;;;22.27;13.10;;;;;;;16.93;42.83;98088.91;5097467;28;20043;-70
2023/11/15 09:31:43;;;;;;;19.00;12.10;;;;;;;15.84;44.99;98086.03;5097230;28;20039;-70
2023/11/15 09:34:13;;;;;;;;;;;;;;;15.24;47.05;98090.53;5098564;28;20065;-70
2023/11/15 09:36:39;;;;;;;23.90;13.43;;;;;;;14.23;49.52;98085.84;5097715;28;19998;-70
2023/11/15 09:39:09;;;;;;;25.23;16.08;;;;;;;13.65;51.63;98089.78;5114312;28;20137;-70
2023/11/15 09:41:35;;;;;;;31.73;18.27;;;;;;;-141.23;100.00;62281.09;5081125;28;20039;-70
2023/11/15 09:44:09;;;;;;;28.38;15.60;;;;;;;-141.23;100.00;62281.09;5097206;28;20285;-69
2023/11/15 09:46:39;;;;;;;26.02;15.25;;;;;;;-141.23;100.00;62281.09;5129788;28;20078;-70
2023/11/15 09:49:05;;;;;;;29.65;16.10;;;;;;;-141.23;100.00;62281.09;5097392;28;20035;-70
2023/11/15 09:51:35;;;;;;;25.83;15.63;;;;;;;-141.23;100.00;62281.09;5097173;28;20187;-69
2023/11/15 09:54:06;;;;;;;32.42;16.98;;;;;;;-141.23;100.00;62281.09;5097457;28;20039;-70
2023/11/15 09:56:32;;;;;;;34.25;16.73;;;;;;;-141.23;100.00;62281.09;5097939;28;20050;-70
2023/11/15 09:59:00;;;;;;;31.17;18.10;;;;;;;-141.23;100.00;62281.09;5131951;27;20088;-70
2023/11/15 10:01:26;;;;;;;34.70;18.70;;;;;;;-141.23;100.00;62281.09;5096912;28;20047;-70
2023/11/15 10:03:52;;;;;;;30.35;18.85;;;;;;;-141.23;100.00;62281.09;5114332;28;20039;-72
2023/11/15 10:06:18;;;;;;;37.38;19.70;;;;;;;-141.23;100.00;62281.09;5114524;28;20518;-71
2023/11/15 10:08:55;;;;;;;34.80;18.77;;;;;;;-141.23;100.00;62281.09;5097045;28;20137;-70
2023/11/15 10:11:21;;;;;;;38.08;20.55;;;;;;;-141.23;100.00;62281.09;5097337;28;20039;-70
2023/11/15 10:13:51;;;;;;;41.70;22.27;;;;;;;-141.23;100.00;62281.09;5080013;28;20051;-70
2023/11/15 10:16:22;;;;;;;46.72;22.15;;;;;;;-141.23;100.00;62281.09;5115493;28;20050;-70
2023/11/15 10:18:49;;;;;;;47.55;23.48;;;;;;;-141.23;100.00;62281.09;5114790;28;20049;-69
2023/11/15 10:21:15;;;;;;;44.22;21.33;;;;;;;-141.23;100.00;62281.09;5100844;28;20039;-70
2023/11/15 10:23:41;;;;;;;43.25;21.38;;;;;;;-141.23;100.00;62281.09;5055809;28;20056;-69
2023/11/15 10:26:09;;;;;;;43.95;22.08;;;;;;;-141.23;100.00;62281.09;5039707;28;20150;-69
2023/11/15 10:28:39;;;;;;;42.47;21.50;;;;;;;-141.23;100.00;62281.09;5073162;28;20059;-70
2023/11/15 10:31:13;;;;;;;41.08;22.27;;;;;;;-141.23;100.00;62281.09;5057381;28;20131;-71
2023/11/15 10:33:45;;;;;;;42.15;20.42;;;;;;;-141.23;100.00;62281.09;5043788;28;20479;-66
2023/11/15 10:36:21;;;;;;;42.78;20.73;;;;;;;-141.23;100.00;62281.09;5043063;28;20479;-68
2023/11/15 10:38:55;;;;;;;45.30;20.63;;;;;;;-141.23;100.00;62281.09;5059644;28;20051;-67
2023/11/15 10:41:24;;;;;;;42.95;20.38;;;;;;;-141.23;100.00;62281.09;5060305;28;20097;-68
2023/11/15 10:43:55;;;;;;;37.70;19.05;;;;;;;-141.23;100.00;62281.09;5076964;28;20044;-69
2023/11/15 10:46:30;;;;;;;39.08;19.27;;;;;;;-141.23;100.00;62281.09;5059864;28;20495;-68
2023/11/15 10:49:00;;;;;;;38.08;19.95;;;;;;;-141.23;100.00;62281.09;5039551;28;20091;-68
2023/11/15 10:51:47;;;;;;;37.78;18.80;;;;;;;-141.23;100.00;62281.09;5055624;28;20437;-68
2023/11/15 10:54:17;;;;;;;36.97;19.75;;;;;;;-141.23;100.00;62281.09;5058590;27;20058;-68
2023/11/15 10:56:43;;;;;;;32.90;18.77;;;;;;;-141.23;100.00;62281.09;5074891;28;20054;-67
2023/11/15 10:59:10;;;;;;;33.42;18.52;;;;;;;-141.23;100.00;62281.09;5058998;28;20142;-67
2023/11/15 11:01:37;;;;;;;33.60;18.15;;;;;;;-141.23;100.00;62281.09;5059095;28;20051;-67
2023/11/15 11:04:08;;;;;;;39.33;19.42;;;;;;;-141.23;100.00;62281.09;5075712;28;20051;-68
2023/11/15 11:07:04;;;;;;;34.13;19.23;;;;;;;-141.23;100.00;62281.09;5075683;28;20415;-70
2023/11/15 11:09:46;;;;;;;36.70;19.33;;;;;;;-141.23;100.00;62281.09;5051906;28;20150;-69
2023/11/15 11:12:20;;;;;;;33.60;18.73;;;;;;;-141.23;100.00;62281.09;5092683;28;20048;-69
2023/11/15 11:15:28;;;;;;;38.28;19.48;;;;;;;-141.23;100.00;62281.09;5074477;28;20044;-68
2023/11/15 11:18:04;;;;;;;31.83;18.17;;;;;;;-141.23;100.00;62281.09;5059255;28;20050;-68